Friday, November 24, 2017, 8:16 AM EST
Back to Local

KGFL, Floyd Bennett Memorial Airport

Location: Queensbury, NY, United States Lat: 43.333
Local Time: 8:16 AM EST (13:16 GMT) Lon: -73.617
Time Zone: US/Eastern Elev: 328 ft

Show me the last for .
Show Coded

Time T Td Feel RH Dir Speed Gust Alt SLP Vis Weather Sky Remarks
2017-11-24 07:53 34 24 27 66 200° 9 - 29.97 30.00 10 OVC027 None
2017-11-24 06:53 33 24 26 69 220° 8 - 29.97 30.00 10 OVC028 6-hr Min Temp (7am): 32.0°F
6-hr Max Temp (7am): 33.1°F
2017-11-24 06:48 34 25 26 69 220° 9 - 29.97 - 10 OVC028 None
2017-11-24 05:53 33 24 30 69 210° 3 - 29.97 29.99 10 OVC031 None
2017-11-24 05:45 33 24 29 69 210° 5 - 29.97 - 10 OVC031 None
2017-11-24 03:53 32 24 27 72 180° 5 - 29.96 29.98 10 OVC030 None
2017-11-24 02:53 32 24 26 72 160° 6 - 29.96 29.98 10 OVC032 None
2017-11-24 01:53 32 24 26 72 180° 6 - 29.97 29.99 8 BKN034 OVC080 None
2017-11-24 00:53 32 24 26 72 190° 6 - 29.96 29.99 10 OVC035 6-hr Min Temp (1am): 28.9°F
6-hr Max Temp (1am): 32.0°F
2017-11-23 23:53 32 24 26 72 200° 7 - 29.97 29.99 7 OVC035 24-hr Min Temp (12am): 21.9°F
24-hr Max Temp (12am): 33.1°F
2017-11-23 22:53 32 24 26 72 180° 6 - 29.97 29.99 6 HZ BKN035 OVC065 None
2017-11-23 21:53 32 24 27 72 200° 5 - 29.98 30.00 10 OVC035 None
2017-11-23 20:53 31 24 25 75 190° 6 - 29.97 30.00 9 BKN039 OVC100 None
2017-11-23 19:53 30 23 26 74 180° 3 - 29.98 30.01 10 OVC100 None
2017-11-23 18:53 30 24 - 78 - Calm - 29.98 30.01 10 OVC100 6-hr Min Temp (7pm): 28.9°F
6-hr Max Temp (7pm): 33.1°F
2017-11-23 17:53 29 23 - 78 - Calm - 29.98 30.01 10 OVC100 None
2017-11-23 16:53 31 21 - 66 - Calm - 29.98 30.01 10 FEW085 FEW110 None
2017-11-23 15:53 32 20 - 60 - Calm - 29.99 30.02 10 FEW090 None
2017-11-23 14:53 33 19 30 55 130° 3 - 30.00 30.02 10 OVC100 None
2017-11-23 13:53 33 20 28 58 130° 6 - 30.01 30.03 10 BKN110 None
2017-11-23 12:53 31 19 26 60 Variable 5 - 30.04 30.06 10 OVC110 6-hr Min Temp (1pm): 21.9°F
6-hr Max Temp (1pm): 32.0°F
2017-11-23 11:53 30 18 25 60 150° 5 - 30.06 30.09 10 BKN120 None
2017-11-23 10:53 29 17 - 60 - Calm - 30.09 30.12 10 CLR None
2017-11-23 09:53 27 16 - 62 - Calm - 30.11 30.14 10 CLR None
2017-11-23 08:53 26 16 18 65 350° 7 - 30.11 30.14 10 CLR None

Support USWX by starting your Amazon purchase here.